Ouagadougou, Burkina Faso
Current Conditions -  °F | °C
As of 7:00 AM on Friday 19 Dec 2014 (Local Time) from DFFD Reporting Station
Clear Clear  
Wind Chill: 70°   Ceiling: Unl
Heat Index: 70°   Visibility: 5mi
Dew Point: 30°   Wind: 6mph
Humidity: 23%   Direction: 360°N
Pressure: 29.97"   Gusts: NA
Location:  12.37°N, 1.53°W
Report Text: DFFD 190700Z 36005KT 8000 NSC 21/M01 Q1015 TEMPO 4000 HZ
Loading
Personal Weather Stations






























Interactive Weather Map New forecast layout! Learn more

10-Day Weather Forecast

Advertisements
Track Severe Weather on mobile